Terminal Aerodrome Forecast
Issued by NWS

Home | Current Version | Previous Version | Graphics & Text | Print | Product List | Glossary On
Versions: 1 2 3 4 5 6 7 8 9 10 11 12 13
233
FTUS43 KMPX 291131
TAFRWF
TAF
KRWF 291131Z 2912/3012 29013KT P6SM BKN035
     FM291500 30015G24KT P6SM VCSH BKN040
     FM300100 28009KT P6SM SCT050 BKN100=

USA.gov is the U.S. government's official web portal to all federal, state and local government web resources and services.